Kezdőlap
METAR-TAF:

METAR-TAF

Repülőterek :

Nagybánya, Románia

földrajzi szélesség: 47-40N, földrajzi hosszúság: 023-35E, magasság: 218 m

Jelenlegi meteorológiai megfigyelések

A jelentés 22 perccel ezelõtt készült, 06:30 UTC
Kelet-délkeleti szél 7 kt, keleti és dél-délkeleti között változik
Hőmérséklet 22°C
Páratartalom 57%
Légköri nyomás 1014 hPa
Látótávolság 10 km, vagy több
felhőtlen 1500 m magasságban, és nincs gomolyfelhõ

METAR: LRBM 210630Z 12007KT 090V150 CAVOK 22/13 Q1014

Idő: 09:52 (06:52 UTC)

Előrejelzés

A jelentés 1 órával és 52 perccel ezelõtt készült, 05:00 UTC
Az előrejelzés 21-én 06 óra UTC és 21-én 15 óra UTC között érvényes
Keleti szél 6 kt
Látótávolság 10 km, vagy több
felhőtlen 1500 m magasságban, és nincs gomolyfelhõ

TAF: LRBM 210500Z 2106/2115 08006KT CAVOK

Meteorológiai megfigyelések és előrejelzések több, mint 4000 repülőtéren (METAR és TAF jelentéseket).

A térképen piros és sárga pontok jelzik az elérhető meteorológiai állomásokat.

Mozgassa az egeret a pont fölött, hogy megjelenjen az állomás neve.

Azután kattintson az időjárási megfigyelések és előrejelzések megtekintéséhez.

A térkép megváltoztatása: kattintson a fekete keresztel jelölt zöld gombra ráközelítéshez, a vonallal jelölt zöld gombra távolításhoz, vagy a zöld nyilakra a szomszédos térképek eléréséhez.


METAR-TAF: